Archival Weather

Abadan

Abadan, Iran (OIAA)

Report from: Thursday, September 21, 2023 6:00 PM UTC
Current time: Saturday, March 2, 2024 9:28 AM UTC

Current weather – Weather history – Daily summaries
Weather forecast

Temperature32.0°C (89.6°F)
Heat index29.9°C (85.8°F)
Dew point5.0°C (41.0°F)
Winds 4 kts (2.1 m/s, 4.6 mph) Northwest (310°)
Clouds Sky clear
Altimeter29.68 in.Hg (1005 mB)
Relative humidity18 %
Density altitude2,348 ft. (716 m)
Remarks Ceiling and visibility OK
Flight conditions Visual Meteorological Conditions
Raw dataOIAA 211800Z 31004KT CAVOK 32/05 Q1005
An error has occurred. This application may no longer respond until reloaded. Reload 🗙